createdAt,value
2022-10-19T00:00:09.298Z,9.88
2022-10-19T00:01:09.188Z,9.63
2022-10-19T00:02:09.227Z,9.64
2022-10-19T00:03:09.265Z,9.66
2022-10-19T00:04:09.174Z,9.68
2022-10-19T00:05:10.226Z,9.82
2022-10-19T00:06:09.253Z,9.75
2022-10-19T00:07:09.205Z,9.76
2022-10-19T00:08:09.269Z,9.94
2022-10-19T00:09:09.231Z,9.99
2022-10-19T00:10:09.297Z,10.01
2022-10-19T00:11:09.149Z,10.06
2022-10-19T00:12:09.375Z,10.03
2022-10-19T00:13:09.226Z,10.04
2022-10-19T00:14:09.215Z,10.03
2022-10-19T00:15:09.223Z,10.01
2022-10-19T00:16:11.332Z,10.09
2022-10-19T00:17:09.059Z,10.04
2022-10-19T00:18:09.101Z,10.09
2022-10-19T00:19:09.153Z,10.04
2022-10-19T00:20:09.147Z,10.10
2022-10-19T00:21:09.131Z,10.17
2022-10-19T00:22:11.681Z,10.07
2022-10-19T00:23:09.103Z,9.97
2022-10-19T00:24:09.065Z,9.83
2022-10-19T00:25:09.100Z,9.68
2022-10-19T00:26:09.098Z,9.79
2022-10-19T00:27:09.093Z,9.70
2022-10-19T00:28:09.137Z,9.58
2022-10-19T00:29:09.170Z,9.57
2022-10-19T00:30:08.938Z,9.38
2022-10-19T00:31:08.978Z,9.25
2022-10-19T00:32:08.990Z,9.21
2022-10-19T00:33:09.079Z,9.13
2022-10-19T00:34:09.061Z,9.10
2022-10-19T00:35:08.967Z,9.04
2022-10-19T00:36:09.070Z,9.13
2022-10-19T00:37:09.010Z,8.93
2022-10-19T00:38:09.052Z,9.10
2022-10-19T00:39:09.013Z,9.02
2022-10-19T00:40:09.076Z,9.13
2022-10-19T00:41:08.963Z,9.18
2022-10-19T00:42:08.933Z,9.23
2022-10-19T00:43:08.927Z,9.25
2022-10-19T00:44:09.010Z,9.34
2022-10-19T00:45:08.886Z,9.25
2022-10-19T00:46:08.965Z,9.24
2022-10-19T00:47:08.808Z,9.27
2022-10-19T00:48:08.827Z,9.30
2022-10-19T00:49:10.820Z,9.15
2022-10-19T00:50:08.862Z,9.20
2022-10-19T00:51:08.870Z,9.24
2022-10-19T00:52:08.908Z,9.24
2022-10-19T00:53:08.891Z,9.39
2022-10-19T00:54:08.898Z,9.20
2022-10-19T00:55:08.903Z,9.15
2022-10-19T00:56:08.831Z,9.06
2022-10-19T00:57:08.892Z,9.13
2022-10-19T00:58:08.773Z,9.09
2022-10-19T00:59:08.849Z,9.16
2022-10-19T01:00:08.823Z,9.13
2022-10-19T01:01:08.998Z,9.15
2022-10-19T01:02:08.777Z,9.09
2022-10-19T01:03:08.901Z,9.20
2022-10-19T01:04:08.707Z,9.05
2022-10-19T01:05:08.748Z,9.20
2022-10-19T01:06:08.833Z,9.16
2022-10-19T01:07:08.791Z,8.94
2022-10-19T01:08:08.782Z,9.06
2022-10-19T01:09:09.809Z,8.90
2022-10-19T01:10:08.771Z,9.12
2022-10-19T01:11:08.733Z,9.21
2022-10-19T01:12:08.779Z,9.12
2022-10-19T01:13:08.731Z,9.01
2022-10-19T01:14:08.722Z,9.04
2022-10-19T01:15:08.786Z,8.99
2022-10-19T01:16:08.747Z,9.01
2022-10-19T01:17:08.858Z,8.90
2022-10-19T01:18:08.684Z,8.91
2022-10-19T01:19:08.672Z,8.93
2022-10-19T01:20:08.654Z,8.78
2022-10-19T01:21:08.582Z,8.78
2022-10-19T01:22:08.790Z,8.94
2022-10-19T01:23:08.698Z,8.93
2022-10-19T01:24:08.749Z,9.12
2022-10-19T01:25:08.650Z,9.01
2022-10-19T01:26:08.654Z,9.04
2022-10-19T01:27:08.650Z,8.88
2022-10-19T01:28:08.683Z,8.86
2022-10-19T01:29:08.675Z,8.88
2022-10-19T01:30:09.688Z,8.91
2022-10-19T01:31:08.592Z,8.88
2022-10-19T01:32:08.585Z,9.01
2022-10-19T01:33:08.481Z,8.94
2022-10-19T01:34:08.558Z,8.79
2022-10-19T01:35:08.573Z,8.75
2022-10-19T01:36:08.550Z,8.76
2022-10-19T01:37:08.585Z,8.81
2022-10-19T01:38:08.541Z,8.79
2022-10-19T01:39:08.588Z,8.75
2022-10-19T01:40:08.583Z,8.62
2022-10-19T01:41:08.532Z,8.72
2022-10-19T01:42:08.534Z,8.68
2022-10-19T01:43:08.576Z,8.71
2022-10-19T01:44:08.529Z,8.68
2022-10-19T01:45:08.632Z,8.66
2022-10-19T01:46:08.474Z,8.76
2022-10-19T01:47:08.542Z,8.84
2022-10-19T01:48:08.427Z,8.76
2022-10-19T01:49:08.387Z,8.83
2022-10-19T01:50:08.403Z,8.87
2022-10-19T01:51:08.366Z,8.73
2022-10-19T01:52:08.475Z,8.73
2022-10-19T01:53:08.432Z,8.65
2022-10-19T01:54:08.452Z,8.55
2022-10-19T01:55:08.511Z,8.57
2022-10-19T01:56:08.431Z,8.51
2022-10-19T01:57:08.426Z,8.45
2022-10-19T01:58:09.616Z,8.47
2022-10-19T01:59:08.412Z,8.63
2022-10-19T02:00:08.431Z,8.54
2022-10-19T02:01:08.552Z,8.57
2022-10-19T02:02:08.475Z,8.65
2022-10-19T02:03:08.349Z,8.63
2022-10-19T02:04:08.390Z,8.48
2022-10-19T02:05:09.211Z,8.48
2022-10-19T02:06:08.349Z,8.51
2022-10-19T02:07:08.353Z,8.45
2022-10-19T02:08:08.377Z,8.47
2022-10-19T02:09:08.345Z,8.40
2022-10-19T02:10:08.461Z,8.39
2022-10-19T02:11:08.316Z,8.35
2022-10-19T02:12:08.346Z,8.45
2022-10-19T02:13:08.335Z,8.47
2022-10-19T02:14:08.297Z,8.53
2022-10-19T02:15:08.313Z,8.55
2022-10-19T02:16:08.262Z,8.58
2022-10-19T02:17:08.622Z,8.63
2022-10-19T02:18:08.305Z,8.47
2022-10-19T02:19:08.170Z,8.51
2022-10-19T02:20:08.133Z,8.51
2022-10-19T02:21:09.262Z,8.39
2022-10-19T02:22:08.186Z,8.51
2022-10-19T02:23:08.271Z,8.57
2022-10-19T02:24:08.288Z,8.73
2022-10-19T02:25:08.262Z,8.65
2022-10-19T02:26:08.264Z,8.55
2022-10-19T02:27:08.253Z,8.57
2022-10-19T02:28:08.288Z,8.60
2022-10-19T02:29:08.277Z,8.66
2022-10-19T02:30:08.188Z,8.58
2022-10-19T02:31:08.223Z,8.54
2022-10-19T02:32:08.183Z,8.62
2022-10-19T02:33:08.094Z,8.65
2022-10-19T02:34:08.077Z,8.48
2022-10-19T02:35:08.078Z,8.40
2022-10-19T02:36:08.044Z,8.35
2022-10-19T02:37:08.064Z,8.21
2022-10-19T02:38:09.076Z,8.26
2022-10-19T02:39:08.120Z,8.20
2022-10-19T02:40:07.999Z,8.07
2022-10-19T02:41:08.023Z,8.04
2022-10-19T02:42:08.096Z,8.18
2022-10-19T02:43:08.113Z,8.02
2022-10-19T02:44:08.099Z,8.15
2022-10-19T02:45:08.134Z,8.10
2022-10-19T02:46:08.131Z,8.17
2022-10-19T02:47:08.048Z,8.11
2022-10-19T02:48:08.066Z,8.20
2022-10-19T02:49:08.129Z,8.10
2022-10-19T02:50:08.145Z,8.02
2022-10-19T02:51:08.106Z,8.14
2022-10-19T02:52:08.075Z,7.97
2022-10-19T02:53:08.017Z,7.99
2022-10-19T02:54:08.085Z,8.07
2022-10-19T02:55:07.933Z,8.03
2022-10-19T02:56:07.936Z,8.00
2022-10-19T02:57:08.063Z,8.04
2022-10-19T02:58:07.928Z,8.15
2022-10-19T02:59:07.987Z,8.30
2022-10-19T03:00:07.984Z,8.15
2022-10-19T03:01:08.050Z,8.11
2022-10-19T03:02:07.970Z,8.10
2022-10-19T03:03:07.946Z,8.18
2022-10-19T03:04:07.937Z,8.10
2022-10-19T03:05:07.952Z,8.22
2022-10-19T03:06:07.937Z,8.29
2022-10-19T03:07:07.940Z,8.07
2022-10-19T03:08:07.941Z,8.15
2022-10-19T03:09:07.816Z,7.97
2022-10-19T03:10:07.837Z,8.04
2022-10-19T03:11:07.927Z,8.14
2022-10-19T03:12:07.831Z,8.18
2022-10-19T03:13:07.823Z,8.33
2022-10-19T03:14:07.832Z,8.40
2022-10-19T03:15:07.770Z,8.30
2022-10-19T03:16:07.874Z,8.35
2022-10-19T03:17:07.992Z,8.18
2022-10-19T03:18:07.853Z,8.26
2022-10-19T03:19:07.925Z,8.32
2022-10-19T03:20:07.829Z,8.45
2022-10-19T03:21:07.815Z,8.47
2022-10-19T03:22:07.814Z,8.55
2022-10-19T03:23:08.053Z,8.45
2022-10-19T03:24:07.811Z,8.36
2022-10-19T03:25:07.835Z,8.40
2022-10-19T03:26:10.048Z,8.47
2022-10-19T03:27:07.784Z,8.53
2022-10-19T03:28:08.874Z,8.44
2022-10-19T03:29:07.672Z,8.47
2022-10-19T03:30:07.703Z,8.58
2022-10-19T03:31:07.737Z,8.32
2022-10-19T03:32:07.700Z,8.33
2022-10-19T03:33:07.846Z,8.25
2022-10-19T03:34:07.748Z,8.15
2022-10-19T03:35:07.730Z,8.21
2022-10-19T03:36:07.735Z,8.18
2022-10-19T03:37:07.726Z,8.30
2022-10-19T03:38:07.740Z,8.30
2022-10-19T03:39:07.780Z,8.28
2022-10-19T03:40:07.749Z,8.22
2022-10-19T03:41:07.736Z,8.28
2022-10-19T03:42:07.782Z,8.22
2022-10-19T03:43:07.660Z,8.30
2022-10-19T03:44:07.718Z,8.25
2022-10-19T03:45:07.639Z,8.21
2022-10-19T03:46:07.634Z,8.40
2022-10-19T03:47:07.660Z,8.30
2022-10-19T03:48:07.604Z,8.29
2022-10-19T03:49:07.533Z,8.07
2022-10-19T03:50:07.689Z,8.03
2022-10-19T03:51:07.507Z,8.02
2022-10-19T03:52:07.542Z,8.12
2022-10-19T03:53:07.573Z,7.89
2022-10-19T03:54:07.499Z,7.69
2022-10-19T03:55:07.615Z,7.49
2022-10-19T03:56:07.635Z,7.47
2022-10-19T03:57:07.633Z,7.49
2022-10-19T03:58:07.582Z,7.49
2022-10-19T03:59:07.642Z,7.38
2022-10-19T04:00:07.571Z,7.34
2022-10-19T04:01:07.709Z,7.47
2022-10-19T04:02:07.611Z,7.45
2022-10-19T04:03:07.566Z,7.31
2022-10-19T04:04:07.527Z,7.41
2022-10-19T04:05:07.515Z,7.41
2022-10-19T04:06:07.545Z,7.40
2022-10-19T04:07:07.513Z,7.49
2022-10-19T04:08:07.402Z,7.42
2022-10-19T04:09:07.496Z,7.45
2022-10-19T04:10:07.377Z,7.45
2022-10-19T04:11:07.495Z,7.50
2022-10-19T04:12:07.525Z,7.38
2022-10-19T04:13:07.470Z,7.34
2022-10-19T04:14:07.503Z,7.29
2022-10-19T04:15:07.481Z,7.27
2022-10-19T04:16:07.454Z,7.34
2022-10-19T04:17:07.462Z,7.27
2022-10-19T04:18:07.441Z,7.38
2022-10-19T04:19:08.008Z,7.35
2022-10-19T04:20:07.383Z,7.52
2022-10-19T04:21:07.419Z,7.45
2022-10-19T04:22:07.428Z,7.50
2022-10-19T04:23:07.704Z,7.56
2022-10-19T04:24:07.413Z,7.66
2022-10-19T04:25:07.377Z,7.55
2022-10-19T04:26:07.412Z,7.60
2022-10-19T04:27:07.575Z,7.71
2022-10-19T04:28:07.270Z,7.66
2022-10-19T04:29:07.303Z,7.74
2022-10-19T04:30:07.366Z,7.69
2022-10-19T04:31:07.288Z,7.74
2022-10-19T04:32:07.391Z,7.69
2022-10-19T04:33:07.380Z,7.87
2022-10-19T04:34:07.315Z,7.87
2022-10-19T04:35:07.293Z,7.87
2022-10-19T04:36:07.304Z,7.79
2022-10-19T04:37:07.317Z,7.93
2022-10-19T04:38:07.435Z,7.87
2022-10-19T04:39:07.236Z,7.90
2022-10-19T04:40:09.461Z,7.93
2022-10-19T04:41:08.231Z,7.96
2022-10-19T04:42:07.212Z,7.93
2022-10-19T04:43:07.157Z,7.94
2022-10-19T04:44:07.144Z,8.08
2022-10-19T04:45:07.284Z,8.14
2022-10-19T04:46:07.190Z,8.21
2022-10-19T04:47:07.448Z,8.26
2022-10-19T04:48:07.185Z,8.26
2022-10-19T04:49:07.248Z,8.39
2022-10-19T04:50:07.156Z,8.37
2022-10-19T04:51:07.149Z,8.44
2022-10-19T04:52:07.167Z,8.53
2022-10-19T04:53:07.132Z,8.54
2022-10-19T04:54:07.111Z,8.60
2022-10-19T04:55:08.174Z,8.63
2022-10-19T04:56:07.111Z,8.65
2022-10-19T04:57:07.135Z,8.58
2022-10-19T04:58:07.039Z,8.68
2022-10-19T04:59:07.131Z,8.69
2022-10-19T05:00:07.027Z,8.76
2022-10-19T05:01:07.178Z,8.73
2022-10-19T05:02:07.086Z,8.72
2022-10-19T05:03:07.019Z,8.81
2022-10-19T05:04:07.088Z,8.79
2022-10-19T05:05:07.054Z,8.84
2022-10-19T05:06:07.111Z,8.83
2022-10-19T05:07:07.057Z,8.78
2022-10-19T05:08:07.122Z,8.62
2022-10-19T05:09:07.051Z,8.62
2022-10-19T05:10:07.065Z,8.63
2022-10-19T05:11:07.009Z,8.72
2022-10-19T05:12:07.065Z,8.57
2022-10-19T05:13:07.013Z,8.55
2022-10-19T05:14:07.082Z,8.48
2022-10-19T05:15:06.939Z,8.32
2022-10-19T05:16:06.891Z,8.32
2022-10-19T05:17:06.955Z,8.36
2022-10-19T05:18:06.883Z,8.29
2022-10-19T05:19:06.885Z,8.32
2022-10-19T05:20:06.874Z,8.22
2022-10-19T05:21:06.865Z,8.30
2022-10-19T05:22:06.859Z,8.29
2022-10-19T05:23:07.456Z,8.29
2022-10-19T05:24:06.840Z,8.20
2022-10-19T05:25:06.968Z,8.20
2022-10-19T05:26:07.650Z,8.20
2022-10-19T05:27:07.027Z,8.17
2022-10-19T05:28:06.991Z,8.12
2022-10-19T05:29:06.962Z,8.10
2022-10-19T05:30:06.892Z,8.14
2022-10-19T05:31:06.899Z,8.00
2022-10-19T05:32:06.884Z,8.02
2022-10-19T05:33:06.854Z,8.11
2022-10-19T05:35:06.773Z,8.03
2022-10-19T05:36:06.766Z,8.04
2022-10-19T05:37:06.877Z,7.99
2022-10-19T05:38:06.731Z,8.10
2022-10-19T05:39:06.766Z,8.07
2022-10-19T05:40:06.785Z,8.15
2022-10-19T05:41:06.748Z,8.20
2022-10-19T05:42:06.746Z,8.12
2022-10-19T05:43:06.743Z,8.25
2022-10-19T05:44:06.886Z,8.18
2022-10-19T05:45:06.887Z,8.21
2022-10-19T05:46:06.853Z,8.28
2022-10-19T05:47:06.836Z,8.22
2022-10-19T05:48:06.769Z,8.17
2022-10-19T05:49:06.863Z,8.21
2022-10-19T05:50:06.806Z,8.36
2022-10-19T05:51:06.766Z,8.44
2022-10-19T05:52:06.722Z,8.53
2022-10-19T05:53:06.740Z,8.54
2022-10-19T05:54:06.701Z,8.75
2022-10-19T05:55:06.657Z,8.76
2022-10-19T05:56:06.606Z,8.79
2022-10-19T05:57:06.688Z,8.83
2022-10-19T05:58:06.591Z,8.83
2022-10-19T05:59:06.600Z,8.90
2022-10-19T06:00:06.746Z,8.93
2022-10-19T06:01:06.649Z,8.94
2022-10-19T06:02:06.690Z,8.88
2022-10-19T06:03:06.667Z,8.93
2022-10-19T06:04:06.661Z,8.97
2022-10-19T06:05:06.654Z,8.93
2022-10-19T06:06:06.709Z,8.99
2022-10-19T06:07:06.633Z,8.97
2022-10-19T06:08:06.689Z,9.06
2022-10-19T06:09:06.619Z,9.02
2022-10-19T06:10:06.672Z,9.16
2022-10-19T06:11:07.190Z,9.06
2022-10-19T06:12:06.516Z,9.16
2022-10-19T06:13:06.513Z,9.21
2022-10-19T06:14:06.496Z,9.09
2022-10-19T06:15:06.570Z,9.15
2022-10-19T06:16:06.524Z,9.16
2022-10-19T06:17:06.590Z,9.15
2022-10-19T06:18:06.561Z,9.16
2022-10-19T06:19:06.559Z,9.15
2022-10-19T06:20:06.541Z,9.09
2022-10-19T06:21:06.553Z,9.12
2022-10-19T06:22:06.587Z,9.16
2022-10-19T06:23:06.499Z,9.18
2022-10-19T06:24:06.498Z,9.16
2022-10-19T06:25:06.500Z,9.18
2022-10-19T06:26:06.535Z,9.18
2022-10-19T06:27:06.429Z,9.23
2022-10-19T06:28:06.436Z,9.21
2022-10-19T06:29:06.474Z,9.18
2022-10-19T06:30:06.486Z,9.16
2022-10-19T06:31:08.555Z,9.15
2022-10-19T06:32:06.436Z,9.12
2022-10-19T06:33:06.925Z,9.12
2022-10-19T06:34:06.481Z,9.16
2022-10-19T06:35:06.571Z,9.16
2022-10-19T06:36:06.413Z,9.06
2022-10-19T06:37:06.435Z,9.02
2022-10-19T06:38:06.499Z,9.05
2022-10-19T06:39:06.469Z,9.05
2022-10-19T06:40:07.331Z,9.10
2022-10-19T06:41:07.413Z,9.05
2022-10-19T06:42:06.325Z,9.06
2022-10-19T06:43:06.293Z,8.86
2022-10-19T06:44:07.169Z,8.68
2022-10-19T06:45:06.291Z,8.53
2022-10-19T06:46:06.365Z,8.40
2022-10-19T06:47:08.130Z,8.44
2022-10-19T06:48:07.723Z,8.32
2022-10-19T06:49:07.368Z,8.26
2022-10-19T06:50:06.368Z,8.26
2022-10-19T06:51:06.626Z,8.35
2022-10-19T06:52:06.330Z,8.39
2022-10-19T06:53:06.309Z,8.53
2022-10-19T06:54:06.365Z,8.53
2022-10-19T06:55:06.319Z,8.69
2022-10-19T06:56:06.256Z,8.57
2022-10-19T06:57:06.202Z,8.83
2022-10-19T06:58:06.175Z,8.78
2022-10-19T06:59:06.163Z,8.88
2022-10-19T07:00:06.229Z,8.73
2022-10-19T07:01:06.203Z,8.69
2022-10-19T07:02:06.159Z,8.83
2022-10-19T07:03:06.138Z,8.86
2022-10-19T07:04:06.150Z,8.83
2022-10-19T07:05:07.240Z,8.87
2022-10-19T07:06:07.164Z,8.75
2022-10-19T07:07:06.163Z,8.72
2022-10-19T07:08:07.162Z,8.72
2022-10-19T07:09:06.175Z,8.66
2022-10-19T07:10:06.487Z,8.75
2022-10-19T07:11:06.191Z,8.71
2022-10-19T07:12:06.173Z,8.68
2022-10-19T07:13:07.198Z,8.69
2022-10-19T07:14:06.180Z,8.72
2022-10-19T07:15:06.209Z,8.57
2022-10-19T07:16:06.163Z,8.47
2022-10-19T07:17:06.211Z,8.44
2022-10-19T07:18:06.137Z,8.32
2022-10-19T07:19:06.017Z,8.33
2022-10-19T07:20:06.037Z,8.39
2022-10-19T07:21:06.030Z,8.40
2022-10-19T07:22:06.049Z,8.51
2022-10-19T07:23:06.111Z,8.58
2022-10-19T07:24:06.128Z,8.50
2022-10-19T07:25:06.086Z,8.37
2022-10-19T07:26:06.046Z,8.28
2022-10-19T07:27:06.050Z,8.25
2022-10-19T07:28:06.106Z,8.21
2022-10-19T07:29:06.055Z,8.36
2022-10-19T07:30:05.959Z,8.54
2022-10-19T07:31:06.072Z,8.39
2022-10-19T07:32:06.021Z,8.42
2022-10-19T07:33:06.106Z,8.51
2022-10-19T07:34:06.029Z,8.47
2022-10-19T07:35:05.992Z,8.48
2022-10-19T07:36:06.032Z,8.50
2022-10-19T07:37:05.982Z,8.60
2022-10-19T07:38:06.061Z,8.57
2022-10-19T07:39:06.309Z,8.66
2022-10-19T07:40:05.876Z,8.76
2022-10-19T07:41:05.895Z,8.84
2022-10-19T07:42:05.971Z,8.73
2022-10-19T07:43:05.845Z,8.76
2022-10-19T07:44:06.062Z,8.90
2022-10-19T07:45:05.939Z,8.93
2022-10-19T07:46:05.998Z,9.02
2022-10-19T07:47:05.899Z,8.97
2022-10-19T07:48:05.913Z,8.93
2022-10-19T07:49:05.889Z,8.90
2022-10-19T07:50:05.943Z,8.90
2022-10-19T07:51:05.889Z,8.99
2022-10-19T07:52:05.879Z,9.10
2022-10-19T07:53:05.920Z,9.05
2022-10-19T07:54:05.798Z,9.18
2022-10-19T07:55:05.812Z,9.15
2022-10-19T07:56:05.846Z,9.01
2022-10-19T07:57:05.737Z,9.13
2022-10-19T07:58:05.738Z,9.25
2022-10-19T07:59:05.736Z,9.27
2022-10-19T08:00:05.747Z,9.20
2022-10-19T08:01:05.776Z,9.30
2022-10-19T08:02:05.840Z,9.45
2022-10-19T08:05:11.476Z,9.86
2022-10-19T08:06:06.737Z,9.83
2022-10-19T08:07:05.821Z,9.64
2022-10-19T08:08:05.806Z,9.60
2022-10-19T08:09:05.849Z,9.48
2022-10-19T08:10:05.739Z,9.52
2022-10-19T08:11:05.756Z,9.49
2022-10-19T08:12:05.899Z,9.48
2022-10-19T08:13:05.732Z,9.50
2022-10-19T08:14:05.762Z,9.63
2022-10-19T08:15:05.725Z,9.56
2022-10-19T08:16:05.612Z,9.61
2022-10-19T08:17:05.627Z,9.73
2022-10-19T08:18:05.710Z,9.86
2022-10-19T08:19:05.849Z,9.99
2022-10-19T08:20:05.585Z,9.96
2022-10-19T08:21:05.684Z,9.96
2022-10-19T08:22:05.742Z,9.85
2022-10-19T08:23:05.657Z,9.71
2022-10-19T08:24:05.741Z,9.66
2022-10-19T08:25:05.655Z,9.64
2022-10-19T08:26:05.713Z,9.85
2022-10-19T08:27:05.647Z,9.99
2022-10-19T08:28:05.671Z,9.86
2022-10-19T08:29:05.597Z,9.73
2022-10-19T08:30:05.611Z,9.71
2022-10-19T08:31:05.555Z,9.70
2022-10-19T08:32:05.496Z,9.88
2022-10-19T08:33:06.355Z,10.07
2022-10-19T08:34:05.662Z,10.19
2022-10-19T08:35:09.935Z,10.44
2022-10-19T08:36:07.521Z,10.59
2022-10-19T08:37:14.684Z,10.39
2022-10-19T08:38:07.546Z,10.36
2022-10-19T08:39:05.553Z,10.19
2022-10-19T08:40:05.572Z,10.28
2022-10-19T08:41:05.613Z,10.43
2022-10-19T08:42:05.549Z,10.59
2022-10-19T08:43:05.534Z,10.63
2022-10-19T08:44:07.726Z,10.74
2022-10-19T08:45:05.602Z,10.83
2022-10-19T08:46:05.524Z,10.84
2022-10-19T08:47:07.199Z,10.92
2022-10-19T08:48:05.475Z,10.59
2022-10-19T08:49:05.432Z,10.71
2022-10-19T08:50:05.396Z,10.74
2022-10-19T08:51:05.442Z,10.84
2022-10-19T08:52:05.375Z,10.98
2022-10-19T08:53:05.359Z,10.98
2022-10-19T08:54:05.340Z,10.86
2022-10-19T08:55:05.436Z,10.98
2022-10-19T08:56:05.347Z,10.98
2022-10-19T08:57:05.409Z,11.06
2022-10-19T08:58:06.315Z,11.17
2022-10-19T08:59:05.425Z,11.19
2022-10-19T09:00:06.075Z,11.13
2022-10-19T09:01:05.405Z,11.35
2022-10-19T09:02:05.373Z,11.39
2022-10-19T09:03:05.353Z,11.53
2022-10-19T09:04:05.405Z,11.70
2022-10-19T09:05:05.353Z,11.64
2022-10-19T09:06:05.418Z,11.64
2022-10-19T09:07:05.342Z,11.70
2022-10-19T09:08:05.383Z,11.64
2022-10-19T09:09:05.416Z,11.61
2022-10-19T09:10:05.403Z,11.54
2022-10-19T09:11:05.362Z,11.62
2022-10-19T09:12:05.268Z,11.57
2022-10-19T09:13:05.290Z,11.46
2022-10-19T09:14:05.914Z,11.53
2022-10-19T09:15:05.216Z,11.52
2022-10-19T09:16:05.254Z,11.57
2022-10-19T09:17:05.238Z,11.44
2022-10-19T09:18:05.184Z,11.47
2022-10-19T09:19:05.197Z,11.47
2022-10-19T09:20:05.266Z,11.57
2022-10-19T09:21:05.233Z,11.54
2022-10-19T09:22:05.340Z,11.31
2022-10-19T09:23:06.812Z,11.29
2022-10-19T09:24:05.230Z,11.01
2022-10-19T09:25:05.216Z,10.78
2022-10-19T09:26:05.214Z,10.63
2022-10-19T09:27:05.197Z,10.42
2022-10-19T09:28:05.282Z,10.30
2022-10-19T09:29:05.240Z,10.26
2022-10-19T09:30:05.169Z,10.10
2022-10-19T09:31:05.276Z,10.21
2022-10-19T09:32:05.169Z,10.25
2022-10-19T09:33:05.723Z,10.46
2022-10-19T09:34:05.169Z,10.62
2022-10-19T09:35:05.103Z,10.52
2022-10-19T09:36:05.135Z,10.73
2022-10-19T09:37:05.247Z,10.66
2022-10-19T09:38:05.150Z,10.62
2022-10-19T09:39:05.179Z,10.43
2022-10-19T09:40:05.248Z,10.46
2022-10-19T09:41:05.133Z,10.59
2022-10-19T09:42:05.121Z,10.78
2022-10-19T09:43:05.178Z,10.92
2022-10-19T09:44:05.147Z,11.17
2022-10-19T09:45:05.000Z,11.27
2022-10-19T09:46:11.596Z,11.39
2022-10-19T09:47:09.065Z,11.46
2022-10-19T09:48:12.179Z,11.52
2022-10-19T09:49:06.138Z,11.49
2022-10-19T09:50:04.998Z,11.49
2022-10-19T09:51:04.959Z,11.44
2022-10-19T09:52:04.989Z,11.52
2022-10-19T09:53:04.993Z,11.49
2022-10-19T09:54:04.999Z,11.65
2022-10-19T09:55:04.975Z,11.70
2022-10-19T09:56:04.962Z,11.71
2022-10-19T09:57:05.024Z,11.75
2022-10-19T09:58:04.957Z,11.65
2022-10-19T09:59:04.912Z,11.59
2022-10-19T10:00:05.038Z,11.53
2022-10-19T10:01:05.039Z,11.39
2022-10-19T10:02:05.190Z,11.54
2022-10-19T10:03:05.031Z,11.52
2022-10-19T10:04:05.036Z,11.47
2022-10-19T10:05:05.024Z,11.38
2022-10-19T10:06:05.321Z,11.32
2022-10-19T10:07:05.073Z,11.53
2022-10-19T10:08:05.063Z,11.67
2022-10-19T10:09:05.109Z,11.72
2022-10-19T10:10:05.164Z,11.53
2022-10-19T10:11:04.984Z,11.62
2022-10-19T10:12:04.945Z,11.74
2022-10-19T10:13:04.914Z,11.65
2022-10-19T10:14:07.516Z,11.71
2022-10-19T10:15:05.838Z,11.70
2022-10-19T10:16:04.836Z,11.77
2022-10-19T10:17:04.990Z,11.71
2022-10-19T10:18:04.797Z,11.82
2022-10-19T10:19:04.957Z,11.68
2022-10-19T10:20:04.859Z,11.82
2022-10-19T10:21:06.946Z,11.85
2022-10-19T10:22:04.915Z,11.97
2022-10-19T10:23:04.823Z,12.04
2022-10-19T10:24:04.844Z,12.09
2022-10-19T10:25:04.826Z,12.27
2022-10-19T10:26:04.858Z,12.33
2022-10-19T10:27:04.884Z,12.19
2022-10-19T10:28:04.873Z,12.06
2022-10-19T10:29:04.737Z,12.12
2022-10-19T10:30:04.757Z,12.16
2022-10-19T10:31:04.744Z,12.19
2022-10-19T10:32:04.864Z,12.26
2022-10-19T10:33:15.896Z,12.24
2022-10-19T10:34:16.340Z,12.11
2022-10-19T10:35:06.677Z,12.11
2022-10-19T10:36:04.676Z,12.19
2022-10-19T10:37:04.761Z,12.23
2022-10-19T10:38:04.720Z,12.30
2022-10-19T10:39:04.784Z,12.37
2022-10-19T10:40:05.140Z,12.62
2022-10-19T10:41:04.698Z,12.64
2022-10-19T10:42:04.910Z,12.41
2022-10-19T10:43:04.897Z,12.57
2022-10-19T10:44:05.295Z,12.46
2022-10-19T10:45:06.353Z,12.66
2022-10-19T10:46:04.822Z,12.82
2022-10-19T10:47:04.765Z,12.99
2022-10-19T10:48:04.727Z,12.92
2022-10-19T10:49:04.719Z,13.02
2022-10-19T10:50:04.792Z,12.88
2022-10-19T10:51:04.706Z,12.95
2022-10-19T10:52:04.795Z,12.92
2022-10-19T10:53:04.681Z,12.93
2022-10-19T10:54:04.567Z,13.09
2022-10-19T10:55:04.624Z,13.03
2022-10-19T10:56:04.539Z,13.12
2022-10-19T10:57:06.628Z,13.15
2022-10-19T10:58:04.552Z,13.20
2022-10-19T10:59:04.539Z,13.24
2022-10-19T11:00:04.527Z,13.37
2022-10-19T11:01:07.752Z,13.37
2022-10-19T11:02:04.626Z,13.58
2022-10-19T11:03:04.705Z,13.67
2022-10-19T11:04:04.643Z,13.70
2022-10-19T11:05:04.728Z,13.70
2022-10-19T11:06:04.730Z,13.80
2022-10-19T11:07:04.499Z,13.83
2022-10-19T11:08:04.507Z,13.98
2022-10-19T11:09:04.556Z,14.13
2022-10-19T11:10:04.559Z,14.14
2022-10-19T11:11:04.576Z,14.12
2022-10-19T11:12:04.605Z,14.16
2022-10-19T11:13:04.485Z,14.28
2022-10-19T11:14:04.483Z,14.37
2022-10-19T11:15:04.549Z,14.35
2022-10-19T11:16:04.593Z,14.53
2022-10-19T11:17:05.128Z,14.53
2022-10-19T11:18:04.567Z,14.67
2022-10-19T11:19:04.374Z,14.60
2022-10-19T11:20:04.347Z,14.62
2022-10-19T11:21:04.448Z,14.67
2022-10-19T11:22:04.343Z,14.74
2022-10-19T11:23:04.365Z,14.56
2022-10-19T11:24:04.418Z,14.74
2022-10-19T11:25:04.276Z,14.56
2022-10-19T11:26:04.618Z,14.62
2022-10-19T11:27:04.488Z,14.64
2022-10-19T11:28:04.702Z,14.64
2022-10-19T11:29:04.421Z,14.56
2022-10-19T11:30:04.360Z,14.61
2022-10-19T11:31:04.352Z,14.62
2022-10-19T11:32:04.318Z,14.88
2022-10-19T11:33:04.350Z,15.02
2022-10-19T11:34:04.388Z,14.86
2022-10-19T11:35:04.366Z,14.99
2022-10-19T11:36:04.384Z,14.88
2022-10-19T11:37:04.347Z,14.74
2022-10-19T11:38:19.759Z,14.81
2022-10-19T11:39:06.453Z,14.75
2022-10-19T11:40:04.310Z,14.83
2022-10-19T11:41:19.775Z,14.84
2022-10-19T11:42:06.372Z,14.84
2022-10-19T11:43:04.234Z,14.74
2022-10-19T11:44:04.201Z,14.90
2022-10-19T11:45:04.307Z,14.98
2022-10-19T11:46:04.175Z,15.21
2022-10-19T11:47:04.166Z,15.36
2022-10-19T11:48:04.123Z,15.45
2022-10-19T11:49:04.109Z,15.52
2022-10-19T11:50:04.210Z,15.68
2022-10-19T11:51:17.305Z,15.64
2022-10-19T11:52:06.128Z,15.74
2022-10-19T11:53:04.069Z,15.60
2022-10-19T11:54:04.199Z,15.51
2022-10-19T11:55:04.216Z,15.39
2022-10-19T11:56:04.155Z,15.51
2022-10-19T11:57:07.270Z,15.46
2022-10-19T11:58:06.221Z,15.42
2022-10-19T11:59:04.235Z,15.36
2022-10-19T12:00:14.362Z,15.43
2022-10-19T12:01:06.381Z,15.28
2022-10-19T12:02:04.278Z,14.91
2022-10-19T12:03:04.168Z,14.68
2022-10-19T12:04:04.184Z,14.57
2022-10-19T12:05:04.123Z,14.28
2022-10-19T12:06:04.265Z,14.31
2022-10-19T12:07:04.151Z,14.46
2022-10-19T12:08:04.112Z,14.65
2022-10-19T12:09:04.249Z,14.86
2022-10-19T12:10:03.999Z,15.01
2022-10-19T12:11:03.995Z,15.20
2022-10-19T12:12:04.034Z,15.31
2022-10-19T12:13:03.990Z,15.42
2022-10-19T12:14:03.994Z,15.46
2022-10-19T12:15:03.978Z,15.66
2022-10-19T12:16:03.997Z,15.78
2022-10-19T12:17:04.041Z,15.99
2022-10-19T12:18:04.035Z,16.00
2022-10-19T12:19:04.055Z,16.01
2022-10-19T12:20:03.998Z,16.03
2022-10-19T12:21:03.989Z,16.06
2022-10-19T12:22:03.977Z,16.06
2022-10-19T12:23:04.021Z,16.15
2022-10-19T12:24:03.951Z,16.18
2022-10-19T12:25:03.981Z,16.27
2022-10-19T12:26:04.023Z,16.33
2022-10-19T12:27:03.945Z,16.44
2022-10-19T12:28:03.965Z,16.25
2022-10-19T12:29:03.933Z,16.00
2022-10-19T12:30:03.833Z,15.99
2022-10-19T12:31:03.985Z,15.94
2022-10-19T12:32:03.873Z,16.14
2022-10-19T12:33:03.858Z,16.38
2022-10-19T12:34:03.970Z,16.65
2022-10-19T12:35:03.813Z,16.98
2022-10-19T12:36:03.852Z,17.08
2022-10-19T12:37:03.879Z,17.13
2022-10-19T12:38:03.875Z,17.07
2022-10-19T12:39:03.909Z,16.95
2022-10-19T12:40:03.924Z,17.20
2022-10-19T12:41:03.840Z,17.30
2022-10-19T12:42:03.869Z,17.48
2022-10-19T12:43:03.851Z,17.36
2022-10-19T12:44:03.818Z,17.94
2022-10-19T12:45:04.916Z,18.61
2022-10-19T12:46:03.793Z,19.18
2022-10-19T12:47:03.807Z,20.15
2022-10-19T12:48:03.866Z,20.74
2022-10-19T12:49:03.722Z,21.19
2022-10-19T12:50:03.747Z,21.23
2022-10-19T12:51:03.774Z,21.35
2022-10-19T12:52:03.693Z,21.72
2022-10-19T12:53:04.688Z,22.09
2022-10-19T12:54:04.067Z,22.56
2022-10-19T12:55:03.685Z,22.56
2022-10-19T12:56:03.672Z,22.62
2022-10-19T12:57:03.664Z,22.19
2022-10-19T12:58:03.652Z,22.27
2022-10-19T12:59:03.727Z,21.92
2022-10-19T13:00:03.735Z,21.60
2022-10-19T13:01:03.786Z,21.01
2022-10-19T13:02:03.703Z,20.42
2022-10-19T13:03:03.725Z,20.77
2022-10-19T13:04:03.663Z,21.09
2022-10-19T13:05:03.738Z,21.23
2022-10-19T13:06:03.663Z,21.23
2022-10-19T13:07:03.710Z,21.48
2022-10-19T13:08:03.677Z,22.17
2022-10-19T13:09:03.702Z,22.62
2022-10-19T13:10:03.671Z,23.12
2022-10-19T13:11:03.642Z,23.42